sensor_id;sensor_type;location;lat;lon;timestamp;pressure;altitude;pressure_sealevel;temperature;humidity
21960;BME280;11144;43.030;25.108;2023-04-04T00:01:22;98035.97;;;10.32;100.00
21960;BME280;11144;43.030;25.108;2023-04-04T00:03:22;98039.66;;;10.29;100.00
21960;BME280;11144;43.030;25.108;2023-04-04T00:05:09;98042.38;;;10.28;100.00
21960;BME280;11144;43.030;25.108;2023-04-04T00:07:02;98045.94;;;10.27;100.00
21960;BME280;11144;43.030;25.108;2023-04-04T00:09:02;98046.28;;;10.21;100.00
21960;BME280;11144;43.030;25.108;2023-04-04T00:10:43;98034.78;;;10.22;100.00
21960;BME280;11144;43.030;25.108;2023-04-04T00:12:43;98048.56;;;10.27;100.00
21960;BME280;11144;43.030;25.108;2023-04-04T00:14:23;98039.13;;;10.23;100.00
21960;BME280;11144;43.030;25.108;2023-04-04T00:16:16;98034.78;;;10.22;100.00
21960;BME280;11144;43.030;25.108;2023-04-04T00:18:02;98033.91;;;10.21;100.00
21960;BME280;11144;43.030;25.108;2023-04-04T00:19:56;98020.03;;;10.18;100.00
21960;BME280;11144;43.030;25.108;2023-04-04T00:21:35;98029.50;;;10.22;100.00
21960;BME280;11144;43.030;25.108;2023-04-04T00:23:35;98012.69;;;10.23;100.00
21960;BME280;11144;43.030;25.108;2023-04-04T00:25:15;98004.63;;;10.26;100.00
21960;BME280;11144;43.030;25.108;2023-04-04T00:27:09;97998.31;;;10.28;100.00
21960;BME280;11144;43.030;25.108;2023-04-04T00:28:49;97974.97;;;10.21;100.00
21960;BME280;11144;43.030;25.108;2023-04-04T00:30:35;97993.31;;;10.24;100.00
21960;BME280;11144;43.030;25.108;2023-04-04T00:32:28;97992.19;;;10.28;100.00
21960;BME280;11144;43.030;25.108;2023-04-04T00:34:08;97976.66;;;10.22;100.00
21960;BME280;11144;43.030;25.108;2023-04-04T00:35:54;97986.13;;;10.26;100.00
21960;BME280;11144;43.030;25.108;2023-04-04T00:37:40;97968.41;;;10.28;100.00
21960;BME280;11144;43.030;25.108;2023-04-04T00:39:19;97960.28;;;10.31;100.00
21960;BME280;11144;43.030;25.108;2023-04-04T00:41:13;97960.19;;;10.32;100.00
21960;BME280;11144;43.030;25.108;2023-04-04T00:43:01;97936.50;;;10.31;100.00
21960;BME280;11144;43.030;25.108;2023-04-04T00:44:50;97922.31;;;10.33;100.00
21960;BME280;11144;43.030;25.108;2023-04-04T00:46:29;97952.97;;;10.36;100.00
21960;BME280;11144;43.030;25.108;2023-04-04T00:48:09;97956.38;;;10.38;100.00
21960;BME280;11144;43.030;25.108;2023-04-04T00:50:04;97970.34;;;10.40;100.00
21960;BME280;11144;43.030;25.108;2023-04-04T00:51:50;97961.66;;;10.38;100.00
21960;BME280;11144;43.030;25.108;2023-04-04T00:53:51;97964.91;;;10.43;100.00
21960;BME280;11144;43.030;25.108;2023-04-04T00:55:30;97975.63;;;10.40;100.00
21960;BME280;11144;43.030;25.108;2023-04-04T00:57:31;97984.50;;;10.39;100.00
21960;BME280;11144;43.030;25.108;2023-04-04T00:59:13;97972.13;;;10.39;100.00
21960;BME280;11144;43.030;25.108;2023-04-04T01:01:06;97975.06;;;10.35;100.00
21960;BME280;11144;43.030;25.108;2023-04-04T01:02:54;97970.69;;;10.34;100.00
21960;BME280;11144;43.030;25.108;2023-04-04T01:04:41;97975.47;;;10.27;100.00
21960;BME280;11144;43.030;25.108;2023-04-04T01:06:21;97962.53;;;10.23;100.00
21960;BME280;11144;43.030;25.108;2023-04-04T01:08:08;97961.78;;;10.21;100.00
21960;BME280;11144;43.030;25.108;2023-04-04T01:09:55;97969.84;;;10.18;100.00
21960;BME280;11144;43.030;25.108;2023-04-04T01:11:37;97969.94;;;10.16;100.00
21960;BME280;11144;43.030;25.108;2023-04-04T01:13:17;97967.56;;;10.12;100.00
21960;BME280;11144;43.030;25.108;2023-04-04T01:15:13;97945.16;;;10.19;100.00
21960;BME280;11144;43.030;25.108;2023-04-04T01:16:53;97951.47;;;10.16;100.00
21960;BME280;11144;43.030;25.108;2023-04-04T01:18:41;97949.69;;;10.17;100.00
21960;BME280;11144;43.030;25.108;2023-04-04T01:20:41;97949.59;;;10.18;100.00
21960;BME280;11144;43.030;25.108;2023-04-04T01:22:23;97935.63;;;10.16;100.00
21960;BME280;11144;43.030;25.108;2023-04-04T01:24:12;97934.75;;;10.16;100.00
21960;BME280;11144;43.030;25.108;2023-04-04T01:26:10;97941.75;;;10.17;100.00
21960;BME280;11144;43.030;25.108;2023-04-04T01:27:51;97945.31;;;10.16;100.00
21960;BME280;11144;43.030;25.108;2023-04-04T01:29:44;97933.06;;;10.15;100.00
21960;BME280;11144;43.030;25.108;2023-04-04T01:31:36;97915.50;;;10.14;100.00
21960;BME280;11144;43.030;25.108;2023-04-04T01:33:35;97935.63;;;10.16;100.00
21960;BME280;11144;43.030;25.108;2023-04-04T01:35:22;97930.16;;;10.19;100.00
21960;BME280;11144;43.030;25.108;2023-04-04T01:37:18;97925.75;;;10.20;100.00
21960;BME280;11144;43.030;25.108;2023-04-04T01:39:19;97929.13;;;10.22;100.00
21960;BME280;11144;43.030;25.108;2023-04-04T01:41:25;97934.25;;;10.25;100.00
21960;BME280;11144;43.030;25.108;2023-04-04T01:43:12;97920.47;;;10.20;100.00
21960;BME280;11144;43.030;25.108;2023-04-04T01:45:13;97918.56;;;10.22;100.00
21960;BME280;11144;43.030;25.108;2023-04-04T01:47:18;97900.78;;;10.10;100.00
21960;BME280;11144;43.030;25.108;2023-04-04T01:48:57;97924.00;;;10.19;100.00
21960;BME280;11144;43.030;25.108;2023-04-04T01:50:51;97925.75;;;10.20;100.00
21960;BME280;11144;43.030;25.108;2023-04-04T01:52:37;97901.34;;;10.15;100.00
21960;BME280;11144;43.030;25.108;2023-04-04T01:54:37;97915.19;;;10.20;100.00
21960;BME280;11144;43.030;25.108;2023-04-04T01:56:39;97908.94;;;10.21;100.00
21960;BME280;11144;43.030;25.108;2023-04-04T01:58:26;97906.66;;;10.15;100.00
21960;BME280;11144;43.030;25.108;2023-04-04T02:00:19;97907.44;;;10.17;100.00
21960;BME280;11144;43.030;25.108;2023-04-04T02:01:59;97917.22;;;10.15;100.00
21960;BME280;11144;43.030;25.108;2023-04-04T02:03:59;97910.97;;;10.16;100.00
21960;BME280;11144;43.030;25.108;2023-04-04T02:05:39;97913.63;;;10.16;100.00
21960;BME280;11144;43.030;25.108;2023-04-04T02:07:39;97922.50;;;10.15;100.00
21960;BME280;11144;43.030;25.108;2023-04-04T02:09:27;97925.13;;;10.15;100.00
21960;BME280;11144;43.030;25.108;2023-04-04T02:11:20;97912.97;;;10.12;100.00
21960;BME280;11144;43.030;25.108;2023-04-04T02:13:02;97920.63;;;10.17;100.00
21960;BME280;11144;43.030;25.108;2023-04-04T02:14:49;97925.91;;;10.17;100.00
21960;BME280;11144;43.030;25.108;2023-04-04T02:16:42;97919.50;;;10.21;100.00
21960;BME280;11144;43.030;25.108;2023-04-04T02:18:29;97916.88;;;10.21;100.00
21960;BME280;11144;43.030;25.108;2023-04-04T02:20:16;97931.03;;;10.20;100.00
21960;BME280;11144;43.030;25.108;2023-04-04T02:21:56;97932.88;;;10.18;100.00
21960;BME280;11144;43.030;25.108;2023-04-04T02:23:43;97923.19;;;10.18;100.00
21960;BME280;11144;43.030;25.108;2023-04-04T02:25:31;97927.59;;;10.18;100.00
21960;BME280;11144;43.030;25.108;2023-04-04T02:27:10;97923.19;;;10.18;100.00
21960;BME280;11144;43.030;25.108;2023-04-04T02:28:58;97927.78;;;10.15;100.00
21960;BME280;11144;43.030;25.108;2023-04-04T02:30:44;97937.38;;;10.16;100.00
21960;BME280;11144;43.030;25.108;2023-04-04T02:32:24;97943.63;;;10.15;100.00
21960;BME280;11144;43.030;25.108;2023-04-04T02:34:12;97929.84;;;10.10;100.00
21960;BME280;11144;43.030;25.108;2023-04-04T02:36:01;97935.03;;;10.11;100.00
21960;BME280;11144;43.030;25.108;2023-04-04T02:37:49;97936.97;;;10.08;100.00
21960;BME280;11144;43.030;25.108;2023-04-04T02:39:52;97934.16;;;10.11;100.00
21960;BME280;11144;43.030;25.108;2023-04-04T02:41:47;97935.13;;;10.10;100.00
21960;BME280;11144;43.030;25.108;2023-04-04T02:43:48;97928.31;;;10.06;100.00
21960;BME280;11144;43.030;25.108;2023-04-04T02:45:29;97931.69;;;10.08;100.00
21960;BME280;11144;43.030;25.108;2023-04-04T02:47:27;97946.84;;;10.04;100.00
21960;BME280;11144;43.030;25.108;2023-04-04T02:49:16;97940.69;;;10.04;100.00
21960;BME280;11144;43.030;25.108;2023-04-04T02:50:56;97934.84;;;9.99;100.00
21960;BME280;11144;43.030;25.108;2023-04-04T02:52:42;97945.03;;;10.05;100.00
21960;BME280;11144;43.030;25.108;2023-04-04T02:54:28;97948.41;;;10.08;100.00
21960;BME280;11144;43.030;25.108;2023-04-04T02:56:11;97947.53;;;10.08;100.00
21960;BME280;11144;43.030;25.108;2023-04-04T02:57:58;97943.34;;;10.04;100.00
21960;BME280;11144;43.030;25.108;2023-04-04T02:59:52;97952.94;;;10.05;100.00
21960;BME280;11144;43.030;25.108;2023-04-04T03:01:34;97945.16;;;10.03;100.00
21960;BME280;11144;43.030;25.108;2023-04-04T03:03:20;97944.44;;;10.00;100.00
21960;BME280;11144;43.030;25.108;2023-04-04T03:05:12;97937.09;;;10.05;100.00
21960;BME280;11144;43.030;25.108;2023-04-04T03:06:52;97941.44;;;10.07;100.00
21960;BME280;11144;43.030;25.108;2023-04-04T03:08:39;97950.44;;;10.03;100.00
21960;BME280;11144;43.030;25.108;2023-04-04T03:10:27;97947.38;;;10.11;100.00
21960;BME280;11144;43.030;25.108;2023-04-04T03:12:08;97941.16;;;10.12;100.00
21960;BME280;11144;43.030;25.108;2023-04-04T03:13:55;97941.06;;;10.13;100.00
21960;BME280;11144;43.030;25.108;2023-04-04T03:15:46;97929.47;;;10.16;100.00
21960;BME280;11144;43.030;25.108;2023-04-04T03:17:28;97935.78;;;10.13;100.00
21960;BME280;11144;43.030;25.108;2023-04-04T03:19:28;97919.09;;;10.13;100.00
21960;BME280;11144;43.030;25.108;2023-04-04T03:21:15;97913.63;;;10.16;100.00
21960;BME280;11144;43.030;25.108;2023-04-04T03:23:01;97911.75;;;10.18;100.00
21960;BME280;11144;43.030;25.108;2023-04-04T03:24:48;97911.59;;;10.21;100.00
21960;BME280;11144;43.030;25.108;2023-04-04T03:26:41;97905.44;;;10.20;100.00
21960;BME280;11144;43.030;25.108;2023-04-04T03:28:21;97899.13;;;10.23;100.00
21960;BME280;11144;43.030;25.108;2023-04-04T03:30:22;97913.13;;;10.25;100.00
21960;BME280;11144;43.030;25.108;2023-04-04T03:32:08;97909.53;;;10.26;100.00
21960;BME280;11144;43.030;25.108;2023-04-04T03:33:57;97912.75;;;10.31;100.00
21960;BME280;11144;43.030;25.108;2023-04-04T03:35:44;97914.47;;;10.32;100.00
21960;BME280;11144;43.030;25.108;2023-04-04T03:37:44;97914.28;;;10.35;100.00
21960;BME280;11144;43.030;25.108;2023-04-04T03:39:46;97903.34;;;10.41;100.00
21960;BME280;11144;43.030;25.108;2023-04-04T03:41:25;97903.34;;;10.41;100.00
21960;BME280;11144;43.030;25.108;2023-04-04T03:43:25;97896.03;;;10.46;100.00
21960;BME280;11144;43.030;25.108;2023-04-04T03:45:07;97885.94;;;10.53;100.00
21960;BME280;11144;43.030;25.108;2023-04-04T03:47:00;97898.91;;;10.57;100.00
21960;BME280;11144;43.030;25.108;2023-04-04T03:48:39;97898.78;;;10.59;100.00
21960;BME280;11144;43.030;25.108;2023-04-04T03:50:23;97899.38;;;10.64;100.00
21960;BME280;11144;43.030;25.108;2023-04-04T03:52:16;97907.22;;;10.65;100.00
21960;BME280;11144;43.030;25.108;2023-04-04T03:53:56;97901.94;;;10.65;100.00
21960;BME280;11144;43.030;25.108;2023-04-04T03:55:43;97901.94;;;10.65;100.00
21960;BME280;11144;43.030;25.108;2023-04-04T03:57:30;97903.81;;;10.63;100.00
21960;BME280;11144;43.030;25.108;2023-04-04T03:59:14;97902.28;;;10.59;100.00
21960;BME280;11144;43.030;25.108;2023-04-04T04:01:01;97919.84;;;10.60;100.00
21960;BME280;11144;43.030;25.108;2023-04-04T04:02:47;97902.38;;;10.58;100.00
21960;BME280;11144;43.030;25.108;2023-04-04T04:04:34;97912.84;;;10.59;100.00
21960;BME280;11144;43.030;25.108;2023-04-04T04:06:22;97913.06;;;10.70;100.00
21960;BME280;11144;43.030;25.108;2023-04-04T04:08:09;97900.41;;;10.61;100.00
21960;BME280;11144;43.030;25.108;2023-04-04T04:09:56;97915.72;;;10.70;100.00
21960;BME280;11144;43.030;25.108;2023-04-04T04:11:49;97923.91;;;10.66;100.00
21960;BME280;11144;43.030;25.108;2023-04-04T04:13:35;97915.88;;;10.67;100.00
21960;BME280;11144;43.030;25.108;2023-04-04T04:15:35;97908.06;;;10.66;100.00
21960;BME280;11144;43.030;25.108;2023-04-04T04:17:21;97928.19;;;10.68;100.00
21960;BME280;11144;43.030;25.108;2023-04-04T04:19:08;97908.91;;;10.66;100.00
21960;BME280;11144;43.030;25.108;2023-04-04T04:20:56;97926.84;;;10.61;100.00
21960;BME280;11144;43.030;25.108;2023-04-04T04:22:44;97851.50;;;10.54;100.00
21960;BME280;11144;43.030;25.108;2023-04-04T04:24:37;97915.41;;;10.61;100.00
21960;BME280;11144;43.030;25.108;2023-04-04T04:26:23;97934.84;;;10.60;100.00
21960;BME280;11144;43.030;25.108;2023-04-04T04:28:16;97914.84;;;10.56;100.00
21960;BME280;11144;43.030;25.108;2023-04-04T04:29:57;97930.59;;;10.57;100.00
21960;BME280;11144;43.030;25.108;2023-04-04T04:31:42;97928.88;;;10.56;100.00
21960;BME280;11144;43.030;25.108;2023-04-04T04:33:39;97932.47;;;10.55;100.00
21960;BME280;11144;43.030;25.108;2023-04-04T04:35:31;97930.78;;;10.54;100.00
21960;BME280;11144;43.030;25.108;2023-04-04T04:37:20;97918.31;;;10.56;100.00
21960;BME280;11144;43.030;25.108;2023-04-04T04:39:03;97940.16;;;10.60;100.00
21960;BME280;11144;43.030;25.108;2023-04-04T04:41:10;97921.56;;;10.61;100.00
21960;BME280;11144;43.030;25.108;2023-04-04T04:43:11;97923.16;;;10.64;100.00
21960;BME280;11144;43.030;25.108;2023-04-04T04:45:11;97923.25;;;10.62;100.00
21960;BME280;11144;43.030;25.108;2023-04-04T04:47:08;97920.69;;;10.61;100.00
21960;BME280;11144;43.030;25.108;2023-04-04T04:49:02;97938.25;;;10.62;100.00
21960;BME280;11144;43.030;25.108;2023-04-04T04:50:50;97942.50;;;10.64;100.00
21960;BME280;11144;43.030;25.108;2023-04-04T04:52:57;97941.19;;;10.57;100.00
21960;BME280;11144;43.030;25.108;2023-04-04T04:54:39;97927.28;;;10.54;100.00
21960;BME280;11144;43.030;25.108;2023-04-04T04:56:39;97944.81;;;10.55;100.00
21960;BME280;11144;43.030;25.108;2023-04-04T04:58:20;97948.16;;;10.58;100.00
21960;BME280;11144;43.030;25.108;2023-04-04T05:00:17;97942.88;;;10.58;100.00
21960;BME280;11144;43.030;25.108;2023-04-04T05:02:04;97942.00;;;10.58;100.00
21960;BME280;11144;43.030;25.108;2023-04-04T05:03:57;97931.75;;;10.67;100.00
21960;BME280;11144;43.030;25.108;2023-04-04T05:05:56;97942.31;;;10.67;100.00
21960;BME280;11144;43.030;25.108;2023-04-04T05:07:44;97933.81;;;10.62;100.00
21960;BME280;11144;43.030;25.108;2023-04-04T05:09:25;97926.63;;;10.64;100.00
21960;BME280;11144;43.030;25.108;2023-04-04T05:11:13;97942.31;;;10.67;100.00
21960;BME280;11144;43.030;25.108;2023-04-04T05:12:59;97936.50;;;10.76;100.00
21960;BME280;11144;43.030;25.108;2023-04-04T05:14:45;97948.13;;;10.74;100.00
21960;BME280;11144;43.030;25.108;2023-04-04T05:16:32;97945.00;;;10.81;100.00
21960;BME280;11144;43.030;25.108;2023-04-04T05:18:18;97953.72;;;10.83;100.00
21960;BME280;11144;43.030;25.108;2023-04-04T05:19:59;97936.13;;;10.82;100.00
21960;BME280;11144;43.030;25.108;2023-04-04T05:21:48;97944.84;;;10.84;100.00
21960;BME280;11144;43.030;25.108;2023-04-04T05:23:43;97940.94;;;10.76;100.00
21960;BME280;11144;43.030;25.108;2023-04-04T05:25:27;97935.88;;;10.87;100.00
21960;BME280;11144;43.030;25.108;2023-04-04T05:27:15;97931.66;;;10.98;100.00
21960;BME280;11144;43.030;25.108;2023-04-04T05:29:10;97942.97;;;11.00;100.00
21960;BME280;11144;43.030;25.108;2023-04-04T05:30:53;97936.09;;;10.98;100.00
21960;BME280;11144;43.030;25.108;2023-04-04T05:32:43;97939.50;;;11.00;100.00
21960;BME280;11144;43.030;25.108;2023-04-04T05:34:33;97957.88;;;11.01;100.00
21960;BME280;11144;43.030;25.108;2023-04-04T05:36:22;97950.56;;;11.06;100.00
21960;BME280;11144;43.030;25.108;2023-04-04T05:38:22;97964.16;;;11.14;100.00
21960;BME280;11144;43.030;25.108;2023-04-04T05:40:03;97955.88;;;11.20;100.00
21960;BME280;11144;43.030;25.108;2023-04-04T05:42:03;97950.50;;;11.22;100.00
21960;BME280;11144;43.030;25.108;2023-04-04T05:44:07;97943.97;;;11.27;100.00
21960;BME280;11144;43.030;25.108;2023-04-04T05:45:47;97943.75;;;11.30;100.00
21960;BME280;11144;43.030;25.108;2023-04-04T05:47:57;97945.00;;;11.25;100.00
21960;BME280;11144;43.030;25.108;2023-04-04T05:50:02;97940.56;;;11.39;100.00
21960;BME280;11144;43.030;25.108;2023-04-04T05:51:53;97933.97;;;11.46;100.00
21960;BME280;11144;43.030;25.108;2023-04-04T05:53:47;97927.63;;;11.35;100.00
21960;BME280;11144;43.030;25.108;2023-04-04T05:55:33;97929.81;;;11.42;100.00
21960;BME280;11144;43.030;25.108;2023-04-04T05:57:26;97939.16;;;11.48;100.00
21960;BME280;11144;43.030;25.108;2023-04-04T05:59:14;97941.03;;;11.46;100.00
21960;BME280;11144;43.030;25.108;2023-04-04T06:01:11;97927.81;;;11.46;100.00
21960;BME280;11144;43.030;25.108;2023-04-04T06:02:55;97949.06;;;11.44;100.00
21960;BME280;11144;43.030;25.108;2023-04-04T06:04:56;97939.63;;;11.40;100.00
21960;BME280;11144;43.030;25.108;2023-04-04T06:06:44;97948.78;;;11.49;100.00
21960;BME280;11144;43.030;25.108;2023-04-04T06:08:37;97946.25;;;11.47;100.00
21960;BME280;11144;43.030;25.108;2023-04-04T06:10:24;97954.56;;;11.55;100.00
21960;BME280;11144;43.030;25.108;2023-04-04T06:12:24;97955.78;;;11.50;100.00
21960;BME280;11144;43.030;25.108;2023-04-04T06:14:05;97959.66;;;11.58;100.00
21960;BME280;11144;43.030;25.108;2023-04-04T06:16:00;97952.69;;;11.57;100.00
21960;BME280;11144;43.030;25.108;2023-04-04T06:17:47;97962.72;;;11.66;100.00
21960;BME280;11144;43.030;25.108;2023-04-04T06:19:40;97950.44;;;11.65;100.00
21960;BME280;11144;43.030;25.108;2023-04-04T06:21:20;97954.97;;;11.77;100.00
21960;BME280;11144;43.030;25.108;2023-04-04T06:23:07;97950.78;;;11.87;100.00
21960;BME280;11144;43.030;25.108;2023-04-04T06:25:00;97954.34;;;12.00;100.00
21960;BME280;11144;43.030;25.108;2023-04-04T06:26:42;97959.06;;;12.23;100.00
21960;BME280;11144;43.030;25.108;2023-04-04T06:28:46;97955.25;;;12.27;100.00
21960;BME280;11144;43.030;25.108;2023-04-04T06:30:34;97959.31;;;12.33;100.00
21960;BME280;11144;43.030;25.108;2023-04-04T06:32:42;97962.63;;;12.22;100.00
21960;BME280;11144;43.030;25.108;2023-04-04T06:34:46;97968.78;;;12.23;100.00
21960;BME280;11144;43.030;25.108;2023-04-04T06:36:40;97977.22;;;12.15;100.00
21960;BME280;11144;43.030;25.108;2023-04-04T06:38:46;97978.28;;;11.99;100.00
21960;BME280;11144;43.030;25.108;2023-04-04T06:40:33;97976.88;;;11.93;100.00
21960;BME280;11144;43.030;25.108;2023-04-04T06:42:19;97991.94;;;11.93;100.00
21960;BME280;11144;43.030;25.108;2023-04-04T06:44:19;97969.06;;;11.92;100.00
21960;BME280;11144;43.030;25.108;2023-04-04T06:46:00;97977.81;;;11.92;100.00
21960;BME280;11144;43.030;25.108;2023-04-04T06:47:55;97973.47;;;11.91;100.00
21960;BME280;11144;43.030;25.108;2023-04-04T06:49:37;97967.50;;;11.88;100.00
21960;BME280;11144;43.030;25.108;2023-04-04T06:51:24;97968.97;;;11.79;100.00
21960;BME280;11144;43.030;25.108;2023-04-04T06:53:18;97965.88;;;11.29;100.00
21960;BME280;11144;43.030;25.108;2023-04-04T06:55:18;97967.69;;;10.85;100.00
21960;BME280;11144;43.030;25.108;2023-04-04T06:56:57;97979.16;;;10.70;100.00
21960;BME280;11144;43.030;25.108;2023-04-04T06:58:57;97977.78;;;10.33;100.00
21960;BME280;11144;43.030;25.108;2023-04-04T07:00:57;97975.13;;;10.18;100.00
21960;BME280;11144;43.030;25.108;2023-04-04T07:02:37;97986.97;;;10.11;100.00
21960;BME280;11144;43.030;25.108;2023-04-04T07:04:25;97993.50;;;10.04;100.00
21960;BME280;11144;43.030;25.108;2023-04-04T07:06:12;97992.28;;;9.94;100.00
21960;BME280;11144;43.030;25.108;2023-04-04T07:07:59;97986.16;;;9.78;100.00
21960;BME280;11144;43.030;25.108;2023-04-04T07:09:59;97992.94;;;9.66;100.00
21960;BME280;11144;43.030;25.108;2023-04-04T07:11:59;97981.19;;;9.56;100.00
21960;BME280;11144;43.030;25.108;2023-04-04T07:13:39;97973.00;;;9.61;100.00
21960;BME280;11144;43.030;25.108;2023-04-04T07:15:32;97971.44;;;9.74;100.00
21960;BME280;11144;43.030;25.108;2023-04-04T07:17:11;97949.38;;;9.75;100.00
21960;BME280;11144;43.030;25.108;2023-04-04T07:19:02;97987.22;;;9.91;100.00
21960;BME280;11144;43.030;25.108;2023-04-04T07:20:56;97992.34;;;10.09;100.00
21960;BME280;11144;43.030;25.108;2023-04-04T07:22:37;98001.22;;;10.24;100.00
21960;BME280;11144;43.030;25.108;2023-04-04T07:24:18;97986.91;;;10.28;100.00
21960;BME280;11144;43.030;25.108;2023-04-04T07:26:10;97990.28;;;9.99;100.00
21960;BME280;11144;43.030;25.108;2023-04-04T07:27:51;98010.19;;;9.89;100.00
21960;BME280;11144;43.030;25.108;2023-04-04T07:29:43;98001.00;;;9.96;100.00
21960;BME280;11144;43.030;25.108;2023-04-04T07:31:36;97992.28;;;9.94;100.00
21960;BME280;11144;43.030;25.108;2023-04-04T07:33:22;98000.66;;;10.02;100.00
21960;BME280;11144;43.030;25.108;2023-04-04T07:35:09;97990.66;;;10.08;100.00
21960;BME280;11144;43.030;25.108;2023-04-04T07:36:50;98004.78;;;10.23;100.00
21960;BME280;11144;43.030;25.108;2023-04-04T07:38:37;98000.69;;;10.33;100.00
21960;BME280;11144;43.030;25.108;2023-04-04T07:40:26;97975.31;;;10.30;100.00
21960;BME280;11144;43.030;25.108;2023-04-04T07:42:05;98003.91;;;10.38;100.00
21960;BME280;11144;43.030;25.108;2023-04-04T07:44:05;98001.72;;;10.46;100.00
21960;BME280;11144;43.030;25.108;2023-04-04T07:46:06;98000.00;;;10.45;100.00
21960;BME280;11144;43.030;25.108;2023-04-04T07:47:45;98000.38;;;10.39;100.00
21960;BME280;11144;43.030;25.108;2023-04-04T07:49:45;97984.25;;;10.28;100.00
21960;BME280;11144;43.030;25.108;2023-04-04T07:51:46;98014.47;;;10.38;100.00
21960;BME280;11144;43.030;25.108;2023-04-04T07:53:48;98016.22;;;10.39;100.00
21960;BME280;11144;43.030;25.108;2023-04-04T07:55:28;98016.53;;;10.33;100.00
21960;BME280;11144;43.030;25.108;2023-04-04T07:57:21;98015.09;;;10.27;100.00
21960;BME280;11144;43.030;25.108;2023-04-04T07:59:01;98013.63;;;10.06;100.00
21960;BME280;11144;43.030;25.108;2023-04-04T08:00:55;98006.41;;;9.77;100.00
21960;BME280;11144;43.030;25.108;2023-04-04T08:02:35;97999.91;;;9.52;100.00
21960;BME280;11144;43.030;25.108;2023-04-04T08:04:35;98002.44;;;9.21;100.00
21960;BME280;11144;43.030;25.108;2023-04-04T08:06:35;98011.44;;;9.00;100.00
21960;BME280;11144;43.030;25.108;2023-04-04T08:08:15;98010.19;;;8.90;100.00
21960;BME280;11144;43.030;25.108;2023-04-04T08:10:17;98015.63;;;8.87;100.00
21960;BME280;11144;43.030;25.108;2023-04-04T08:12:18;98015.16;;;8.79;100.00
21960;BME280;11144;43.030;25.108;2023-04-04T08:14:04;98028.72;;;8.88;100.00
21960;BME280;11144;43.030;25.108;2023-04-04T08:15:57;98026.66;;;8.95;100.00
21960;BME280;11144;43.030;25.108;2023-04-04T08:17:45;98027.16;;;9.18;100.00
21960;BME280;11144;43.030;25.108;2023-04-04T08:19:45;98034.53;;;9.29;100.00
21960;BME280;11144;43.030;25.108;2023-04-04T08:21:24;98032.50;;;9.34;100.00
21960;BME280;11144;43.030;25.108;2023-04-04T08:23:11;98024.38;;;9.38;100.00
21960;BME280;11144;43.030;25.108;2023-04-04T08:24:58;98039.56;;;9.50;100.00
21960;BME280;11144;43.030;25.108;2023-04-04T08:26:39;98036.31;;;9.45;100.00
21960;BME280;11144;43.030;25.108;2023-04-04T08:28:38;98025.84;;;9.44;100.00
21960;BME280;11144;43.030;25.108;2023-04-04T08:30:25;98033.44;;;9.50;100.00
21960;BME280;11144;43.030;25.108;2023-04-04T08:32:05;98044.16;;;9.62;100.00
21960;BME280;11144;43.030;25.108;2023-04-04T08:34:05;98053.75;;;9.65;100.00
21960;BME280;11144;43.030;25.108;2023-04-04T08:36:06;98042.63;;;9.58;100.00
21960;BME280;11144;43.030;25.108;2023-04-04T08:37:46;98042.63;;;9.58;100.00
21960;BME280;11144;43.030;25.108;2023-04-04T08:39:46;98050.16;;;9.66;100.00
21960;BME280;11144;43.030;25.108;2023-04-04T08:41:44;98046.88;;;9.61;100.00
21960;BME280;11144;43.030;25.108;2023-04-04T08:43:46;98040.41;;;9.51;100.00
21960;BME280;11144;43.030;25.108;2023-04-04T08:45:40;98045.63;;;9.35;100.00
21960;BME280;11144;43.030;25.108;2023-04-04T08:47:34;98043.06;;;9.34;100.00
21960;BME280;11144;43.030;25.108;2023-04-04T08:49:22;98040.34;;;9.35;100.00
21960;BME280;11144;43.030;25.108;2023-04-04T08:51:05;98060.34;;;9.39;100.00
21960;BME280;11144;43.030;25.108;2023-04-04T08:52:59;98067.44;;;9.39;100.00
21960;BME280;11144;43.030;25.108;2023-04-04T08:54:42;98069.78;;;9.28;100.00
21960;BME280;11144;43.030;25.108;2023-04-04T08:56:24;98070.06;;;9.22;100.00
21960;BME280;11144;43.030;25.108;2023-04-04T08:58:19;98063.16;;;9.02;100.00
21960;BME280;11144;43.030;25.108;2023-04-04T08:59:59;98072.84;;;9.02;100.00
21960;BME280;11144;43.030;25.108;2023-04-04T09:01:46;98066.47;;;8.89;100.00
21960;BME280;11144;43.030;25.108;2023-04-04T09:03:33;98082.28;;;8.89;100.00
21960;BME280;11144;43.030;25.108;2023-04-04T09:05:15;98072.50;;;8.91;100.00
21960;BME280;11144;43.030;25.108;2023-04-04T09:06:57;98075.31;;;8.88;100.00
21960;BME280;11144;43.030;25.108;2023-04-04T09:08:50;98074.72;;;9.00;100.00
21960;BME280;11144;43.030;25.108;2023-04-04T09:10:38;98077.34;;;9.00;100.00
21960;BME280;11144;43.030;25.108;2023-04-04T09:12:35;98086.66;;;9.07;100.00
21960;BME280;11144;43.030;25.108;2023-04-04T09:14:17;98083.63;;;9.14;100.00
21960;BME280;11144;43.030;25.108;2023-04-04T09:16:06;98074.47;;;9.21;100.00
21960;BME280;11144;43.030;25.108;2023-04-04T09:17:59;98079.97;;;9.34;100.00
21960;BME280;11144;43.030;25.108;2023-04-04T09:19:39;98077.81;;;9.42;100.00
21960;BME280;11144;43.030;25.108;2023-04-04T09:21:38;98078.59;;;9.44;100.00
21960;BME280;11144;43.030;25.108;2023-04-04T09:23:19;98081.22;;;9.44;100.00
21960;BME280;11144;43.030;25.108;2023-04-04T09:25:21;98085.88;;;9.56;100.00
21960;BME280;11144;43.030;25.108;2023-04-04T09:27:01;98089.28;;;9.58;100.00
21960;BME280;11144;43.030;25.108;2023-04-04T09:28:54;98085.06;;;9.71;100.00